sensor_id;sensor_type;location;lat;lon;timestamp;pressure;altitude;pressure_sealevel;temperature;humidity
929;BME280;451;47.988;7.842;2023-03-16T00:09:03;98819.28;;;3.85;94.49
929;BME280;451;47.988;7.842;2023-03-16T00:18:06;98819.50;;;4.04;91.20
929;BME280;451;47.988;7.842;2023-03-16T00:27:12;98815.09;;;4.27;89.43
929;BME280;451;47.988;7.842;2023-03-16T00:36:16;98838.56;;;3.93;90.46
929;BME280;451;47.988;7.842;2023-03-16T00:45:21;98823.19;;;3.46;94.07
929;BME280;451;47.988;7.842;2023-03-16T00:54:25;98815.50;;;3.33;96.63
929;BME280;451;47.988;7.842;2023-03-16T01:03:30;98602.25;;;1.90;98.15
929;BME280;451;47.988;7.842;2023-03-16T01:12:33;98797.28;;;3.22;100.00
929;BME280;451;47.988;7.842;2023-03-16T01:21:38;98743.13;;;2.71;100.00
929;BME280;451;47.988;7.842;2023-03-16T01:30:42;98748.66;;;2.56;100.00
929;BME280;451;47.988;7.842;2023-03-16T01:39:47;98768.53;;;2.90;100.00
929;BME280;451;47.988;7.842;2023-03-16T01:48:55;98728.47;;;2.59;100.00
929;BME280;451;47.988;7.842;2023-03-16T01:58:03;98763.53;;;2.65;100.00
929;BME280;451;47.988;7.842;2023-03-16T02:07:09;98800.97;;;2.26;100.00
929;BME280;451;47.988;7.842;2023-03-16T02:16:16;98764.50;;;2.40;100.00
929;BME280;451;47.988;7.842;2023-03-16T02:25:23;98804.63;;;2.47;100.00
929;BME280;451;47.988;7.842;2023-03-16T02:34:29;98710.25;;;2.13;100.00
929;BME280;451;47.988;7.842;2023-03-16T02:43:34;98746.81;;;2.45;100.00
929;BME280;451;47.988;7.842;2023-03-16T02:52:50;98738.16;;;2.33;100.00
929;BME280;451;47.988;7.842;2023-03-16T03:01:54;98713.09;;;2.45;100.00
929;BME280;451;47.988;7.842;2023-03-16T03:10:58;98668.53;;;1.81;100.00
929;BME280;451;47.988;7.842;2023-03-16T03:20:03;98707.47;;;2.16;100.00
929;BME280;451;47.988;7.842;2023-03-16T03:29:15;98701.41;;;2.05;100.00
929;BME280;451;47.988;7.842;2023-03-16T03:38:18;98693.88;;;2.13;100.00
929;BME280;451;47.988;7.842;2023-03-16T03:47:23;98695.09;;;2.20;100.00
929;BME280;451;47.988;7.842;2023-03-16T03:56:26;98706.09;;;2.23;100.00
929;BME280;451;47.988;7.842;2023-03-16T04:05:31;98689.78;;;1.86;100.00
929;BME280;451;47.988;7.842;2023-03-16T04:14:34;98697.56;;;1.86;100.00
929;BME280;451;47.988;7.842;2023-03-16T04:23:44;98712.09;;;2.24;100.00
929;BME280;451;47.988;7.842;2023-03-16T04:32:47;98578.97;;;1.42;100.00
929;BME280;451;47.988;7.842;2023-03-16T04:41:56;98583.53;;;1.39;100.00
929;BME280;451;47.988;7.842;2023-03-16T04:51:01;98568.78;;;1.28;100.00
929;BME280;451;47.988;7.842;2023-03-16T05:00:13;98632.25;;;1.81;100.00
929;BME280;451;47.988;7.842;2023-03-16T05:09:29;98427.78;;;0.50;100.00
929;BME280;451;47.988;7.842;2023-03-16T05:18:33;98663.13;;;1.84;100.00
929;BME280;451;47.988;7.842;2023-03-16T05:27:36;98618.97;;;2.32;100.00
929;BME280;451;47.988;7.842;2023-03-16T05:36:43;98656.75;;;2.47;100.00
929;BME280;451;47.988;7.842;2023-03-16T05:45:50;98640.72;;;2.42;100.00
929;BME280;451;47.988;7.842;2023-03-16T05:54:56;98540.06;;;1.55;100.00
929;BME280;451;47.988;7.842;2023-03-16T06:03:59;98691.94;;;2.73;100.00
929;BME280;451;47.988;7.842;2023-03-16T06:13:06;98605.69;;;2.48;99.75
929;BME280;451;47.988;7.842;2023-03-16T06:22:10;98683.22;;;3.19;96.35
929;BME280;451;47.988;7.842;2023-03-16T06:31:15;98651.59;;;3.14;96.67
929;BME280;451;47.988;7.842;2023-03-16T06:40:21;98629.88;;;3.80;92.88
929;BME280;451;47.988;7.842;2023-03-16T06:49:26;98690.97;;;4.38;90.41
929;BME280;451;47.988;7.842;2023-03-16T06:58:30;98689.00;;;4.52;89.13
929;BME280;451;47.988;7.842;2023-03-16T07:07:35;98673.19;;;4.64;88.25
929;BME280;451;47.988;7.842;2023-03-16T07:16:38;98633.84;;;5.18;83.40
929;BME280;451;47.988;7.842;2023-03-16T07:25:45;98628.19;;;5.13;81.51
929;BME280;451;47.988;7.842;2023-03-16T07:34:51;98611.53;;;4.95;82.91
929;BME280;451;47.988;7.842;2023-03-16T07:43:57;98576.38;;;5.10;81.34
929;BME280;451;47.988;7.842;2023-03-16T07:53:00;98507.00;;;5.28;77.05
929;BME280;451;47.988;7.842;2023-03-16T08:02:05;98530.19;;;6.08;74.27
929;BME280;451;47.988;7.842;2023-03-16T08:11:09;98512.75;;;5.71;76.88
929;BME280;451;47.988;7.842;2023-03-16T08:20:22;98617.22;;;6.46;78.65
929;BME280;451;47.988;7.842;2023-03-16T08:29:26;98624.13;;;8.01;71.35
929;BME280;451;47.988;7.842;2023-03-16T08:38:30;98621.00;;;8.16;69.42
929;BME280;451;47.988;7.842;2023-03-16T08:47:38;98529.94;;;7.84;69.49
929;BME280;451;47.988;7.842;2023-03-16T08:56:43;98542.81;;;8.21;67.82
929;BME280;451;47.988;7.842;2023-03-16T09:05:46;98575.44;;;8.78;65.83
929;BME280;451;47.988;7.842;2023-03-16T09:14:51;98579.75;;;9.29;65.36
929;BME280;451;47.988;7.842;2023-03-16T09:23:57;98576.75;;;9.82;63.43
929;BME280;451;47.988;7.842;2023-03-16T09:33:01;98549.50;;;9.99;62.39
929;BME280;451;47.988;7.842;2023-03-16T09:42:11;98454.63;;;9.05;61.13
929;BME280;451;47.988;7.842;2023-03-16T09:51:22;98566.91;;;10.00;62.84
929;BME280;451;47.988;7.842;2023-03-16T10:00:35;98508.31;;;10.00;62.90
929;BME280;451;47.988;7.842;2023-03-16T10:09:46;98512.41;;;9.70;60.07
929;BME280;451;47.988;7.842;2023-03-16T10:18:56;98527.63;;;11.03;58.01
929;BME280;451;47.988;7.842;2023-03-16T10:28:01;98535.53;;;11.56;55.91
929;BME280;451;47.988;7.842;2023-03-16T10:37:04;98432.19;;;10.55;55.24
929;BME280;451;47.988;7.842;2023-03-16T10:46:11;98515.00;;;11.29;56.09
929;BME280;451;47.988;7.842;2023-03-16T10:55:16;98527.03;;;11.23;56.36
929;BME280;451;47.988;7.842;2023-03-16T11:04:21;98526.19;;;10.92;55.09
929;BME280;451;47.988;7.842;2023-03-16T11:13:31;98501.72;;;11.45;54.86
929;BME280;451;47.988;7.842;2023-03-16T11:22:37;98513.78;;;12.08;52.27
929;BME280;451;47.988;7.842;2023-03-16T11:31:45;98501.25;;;11.87;53.79
929;BME280;451;47.988;7.842;2023-03-16T11:40:56;98381.81;;;11.95;52.55
929;BME280;451;47.988;7.842;2023-03-16T11:50:05;98483.09;;;12.44;52.61
929;BME280;451;47.988;7.842;2023-03-16T11:59:31;98476.25;;;12.21;50.57
929;BME280;451;47.988;7.842;2023-03-16T12:08:56;98464.34;;;13.34;49.84
929;BME280;451;47.988;7.842;2023-03-16T12:18:13;98413.97;;;13.36;49.27
929;BME280;451;47.988;7.842;2023-03-16T12:27:20;98428.84;;;13.64;49.98
929;BME280;451;47.988;7.842;2023-03-16T12:36:46;98447.22;;;13.51;51.13
929;BME280;451;47.988;7.842;2023-03-16T12:45:58;98413.41;;;14.17;49.69
929;BME280;451;47.988;7.842;2023-03-16T12:55:12;98411.31;;;14.12;48.44
929;BME280;451;47.988;7.842;2023-03-16T13:04:17;98364.50;;;14.06;47.59
929;BME280;451;47.988;7.842;2023-03-16T13:13:22;98129.09;;;12.85;45.83
929;BME280;451;47.988;7.842;2023-03-16T13:22:29;98386.00;;;14.72;44.89
929;BME280;451;47.988;7.842;2023-03-16T13:31:36;98396.72;;;15.25;45.58
929;BME280;451;47.988;7.842;2023-03-16T13:40:45;98361.59;;;14.83;46.58
929;BME280;451;47.988;7.842;2023-03-16T13:49:54;98366.13;;;16.21;44.52
929;BME280;451;47.988;7.842;2023-03-16T13:58:58;98342.97;;;15.70;44.36
929;BME280;451;47.988;7.842;2023-03-16T14:08:11;98330.50;;;15.45;45.16
929;BME280;451;47.988;7.842;2023-03-16T14:17:18;98337.38;;;14.93;45.20
929;BME280;451;47.988;7.842;2023-03-16T14:26:24;98228.81;;;15.46;44.21
929;BME280;451;47.988;7.842;2023-03-16T14:35:29;98258.50;;;15.81;44.27
929;BME280;451;47.988;7.842;2023-03-16T14:44:34;98284.66;;;17.04;42.08
929;BME280;451;47.988;7.842;2023-03-16T14:53:39;98285.78;;;16.90;42.25
929;BME280;451;47.988;7.842;2023-03-16T15:02:50;98288.97;;;16.74;43.23
929;BME280;451;47.988;7.842;2023-03-16T15:11:56;98293.66;;;17.03;43.10
929;BME280;451;47.988;7.842;2023-03-16T15:21:00;98289.94;;;17.36;43.00
929;BME280;451;47.988;7.842;2023-03-16T15:30:13;98293.78;;;15.81;46.36
929;BME280;451;47.988;7.842;2023-03-16T15:39:23;98251.66;;;15.40;47.80
929;BME280;451;47.988;7.842;2023-03-16T15:48:26;98307.88;;;15.68;46.92
929;BME280;451;47.988;7.842;2023-03-16T15:57:31;98222.53;;;14.74;47.49
929;BME280;451;47.988;7.842;2023-03-16T16:06:34;98309.31;;;15.64;46.09
929;BME280;451;47.988;7.842;2023-03-16T16:15:38;98302.00;;;15.66;46.51
929;BME280;451;47.988;7.842;2023-03-16T16:24:42;98195.50;;;14.85;46.28
929;BME280;451;47.988;7.842;2023-03-16T16:33:47;98302.16;;;14.73;47.90
929;BME280;451;47.988;7.842;2023-03-16T16:42:52;98281.19;;;14.84;48.02
929;BME280;451;47.988;7.842;2023-03-16T16:51:57;98279.25;;;14.39;48.28
929;BME280;451;47.988;7.842;2023-03-16T17:01:00;98280.47;;;14.36;48.81
929;BME280;451;47.988;7.842;2023-03-16T17:10:05;98271.81;;;14.14;49.32
929;BME280;451;47.988;7.842;2023-03-16T17:19:15;98255.69;;;13.62;50.61
929;BME280;451;47.988;7.842;2023-03-16T17:28:22;98264.47;;;13.35;52.85
929;BME280;451;47.988;7.842;2023-03-16T17:37:26;98275.56;;;13.02;58.76
929;BME280;451;47.988;7.842;2023-03-16T17:46:31;98267.56;;;12.68;62.67
929;BME280;451;47.988;7.842;2023-03-16T17:55:34;98269.09;;;12.05;65.78
929;BME280;451;47.988;7.842;2023-03-16T18:04:40;98256.09;;;11.59;65.67
929;BME280;451;47.988;7.842;2023-03-16T18:13:44;98254.03;;;11.03;67.62
929;BME280;451;47.988;7.842;2023-03-16T18:22:49;98222.81;;;11.00;69.39
929;BME280;451;47.988;7.842;2023-03-16T18:31:54;98241.34;;;11.06;70.34
929;BME280;451;47.988;7.842;2023-03-16T18:41:08;98249.63;;;10.58;72.92
929;BME280;451;47.988;7.842;2023-03-16T18:50:19;98231.66;;;10.24;76.44
929;BME280;451;47.988;7.842;2023-03-16T18:59:25;98136.63;;;9.58;75.89
929;BME280;451;47.988;7.842;2023-03-16T19:08:28;98157.94;;;9.24;79.70
929;BME280;451;47.988;7.842;2023-03-16T19:17:33;98205.09;;;9.49;77.35
929;BME280;451;47.988;7.842;2023-03-16T19:26:36;98231.84;;;9.75;73.86
929;BME280;451;47.988;7.842;2023-03-16T19:35:41;98236.41;;;9.81;72.73
929;BME280;451;47.988;7.842;2023-03-16T19:44:46;98232.53;;;9.69;72.17
929;BME280;451;47.988;7.842;2023-03-16T19:53:51;98221.97;;;9.46;71.33
929;BME280;451;47.988;7.842;2023-03-16T20:02:55;98223.31;;;9.34;70.63
929;BME280;451;47.988;7.842;2023-03-16T20:12:01;98195.53;;;9.01;69.95
929;BME280;451;47.988;7.842;2023-03-16T20:21:04;98165.94;;;8.60;69.15
929;BME280;451;47.988;7.842;2023-03-16T20:30:17;98120.75;;;7.93;68.52
929;BME280;451;47.988;7.842;2023-03-16T20:39:20;98120.09;;;7.99;67.61
929;BME280;451;47.988;7.842;2023-03-16T20:48:25;98207.53;;;8.71;64.71
929;BME280;451;47.988;7.842;2023-03-16T20:57:29;98205.56;;;8.73;65.21
929;BME280;451;47.988;7.842;2023-03-16T21:06:35;98175.13;;;8.39;66.03
929;BME280;451;47.988;7.842;2023-03-16T21:15:38;98205.56;;;8.40;68.19
929;BME280;451;47.988;7.842;2023-03-16T21:24:43;98209.09;;;8.15;67.41
929;BME280;451;47.988;7.842;2023-03-16T21:33:46;98204.22;;;8.28;67.27
929;BME280;451;47.988;7.842;2023-03-16T21:42:51;98197.00;;;8.14;65.14
929;BME280;451;47.988;7.842;2023-03-16T21:51:55;98184.25;;;8.11;66.27
929;BME280;451;47.988;7.842;2023-03-16T22:00:59;98169.44;;;7.78;65.74
929;BME280;451;47.988;7.842;2023-03-16T22:10:12;98169.47;;;7.94;66.32
929;BME280;451;47.988;7.842;2023-03-16T22:19:17;98137.31;;;7.51;68.23
929;BME280;451;47.988;7.842;2023-03-16T22:28:20;98111.94;;;7.36;68.34
929;BME280;451;47.988;7.842;2023-03-16T22:37:26;98124.50;;;7.32;69.07
929;BME280;451;47.988;7.842;2023-03-16T22:46:30;98012.53;;;6.61;69.09
929;BME280;451;47.988;7.842;2023-03-16T22:55:37;98138.97;;;7.10;70.44
929;BME280;451;47.988;7.842;2023-03-16T23:04:41;98145.50;;;7.14;70.13
929;BME280;451;47.988;7.842;2023-03-16T23:13:46;98147.66;;;7.19;70.60
929;BME280;451;47.988;7.842;2023-03-16T23:22:50;98126.44;;;7.22;70.92
929;BME280;451;47.988;7.842;2023-03-16T23:31:55;98135.47;;;7.02;71.44
929;BME280;451;47.988;7.842;2023-03-16T23:40:58;98099.72;;;7.02;70.11
929;BME280;451;47.988;7.842;2023-03-16T23:50:04;98014.47;;;6.59;68.26
929;BME280;451;47.988;7.842;2023-03-16T23:59:07;98117.44;;;7.16;69.76
